Time;durP1;ratioP1;P1;durP2;ratioP2;P2;SDS_P1;SDS_P2;PMS_P1;PMS_P2;Temp;Humidity;BMP_temperature;BMP_pressure;BME280_temperature;BME280_humidity;BME280_pressure;Samples;Min_cycle;Max_cycle;Signal;HPM_P1;HPM_P2
2021/05/18 00:01:47;;;;;;;2.13;1.38;;;;;;;19.95;48.00;99487.78;5095110;28;20174;-60
2021/05/18 00:04:14;;;;;;;2.58;1.30;;;;;;;19.96;47.84;99482.41;5096622;28;20028;-60
2021/05/18 00:06:41;;;;;;;2.50;1.30;;;;;;;19.96;47.99;99485.06;5094974;28;20040;-60
2021/05/18 00:11:52;;;;;;;2.13;1.33;;;;;;;19.97;47.80;99491.25;5096708;28;20074;-60
2021/05/18 00:14:20;;;;;;;3.00;1.48;;;;;;;19.96;47.91;99487.72;5096406;28;20036;-60
2021/05/18 00:16:46;;;;;;;2.13;1.30;;;;;;;19.96;47.89;99490.41;5096810;28;20129;-60
2021/05/18 00:19:13;;;;;;;1.80;1.35;;;;;;;19.96;47.77;99498.38;5096348;28;20038;-60
2021/05/18 00:21:39;;;;;;;2.88;1.73;;;;;;;19.96;47.92;99506.38;5096294;28;20461;-60
2021/05/18 00:24:05;;;;;;;2.80;1.45;;;;;;;19.97;47.70;99504.59;5094685;28;20032;-60
2021/05/18 00:26:32;;;;;;;1.77;1.20;;;;;;;19.96;47.81;99506.38;5096609;28;20040;-60
2021/05/18 00:28:58;;;;;;;2.95;1.50;;;;;;;19.97;47.87;99509.91;5096131;28;20388;-60
2021/05/18 00:31:24;;;;;;;2.42;1.30;;;;;;;19.97;47.87;99512.56;5095326;28;20070;-60
2021/05/18 00:33:50;;;;;;;2.60;1.30;;;;;;;19.97;47.69;99504.59;5096063;28;20085;-60
2021/05/18 00:36:16;;;;;;;3.63;1.50;;;;;;;19.97;47.64;99509.91;5095706;28;20032;-60
2021/05/18 00:38:42;;;;;;;2.90;1.42;;;;;;;19.97;47.80;99520.56;5094906;28;20115;-60
2021/05/18 00:41:09;;;;;;;2.72;1.40;;;;;;;19.98;47.85;99519.63;5095583;28;20039;-60
2021/05/18 00:43:35;;;;;;;1.95;1.30;;;;;;;19.98;47.70;99523.16;5095895;28;20432;-60
2021/05/18 00:46:02;;;;;;;2.55;1.48;;;;;;;19.98;47.75;99524.97;5095431;28;20488;-60
2021/05/18 00:48:28;;;;;;;2.67;1.50;;;;;;;19.96;47.80;99527.69;5095520;28;20039;-60
2021/05/18 00:50:56;;;;;;;2.15;1.40;;;;;;;19.97;47.64;99524.09;5095703;28;20028;-60
2021/05/18 00:53:23;;;;;;;1.85;1.40;;;;;;;19.97;47.54;99528.56;5094109;28;20032;-60
2021/05/18 00:56:06;;;;;;;2.92;1.45;;;;;;;19.97;47.54;99526.75;5094626;28;20059;-60
2021/05/18 00:58:38;;;;;;;1.67;1.27;;;;;;;19.98;47.70;99524.97;5094069;28;20031;-60
2021/05/18 01:01:17;;;;;;;1.38;1.23;;;;;;;19.97;47.69;99520.56;5094016;28;20051;-60
2021/05/18 01:03:44;;;;;;;2.47;1.40;;;;;;;19.96;47.55;99522.38;5095544;28;20023;-60
2021/05/18 01:06:29;;;;;;;1.77;1.30;;;;;;;19.96;47.70;99519.69;5095070;28;20043;-60
2021/05/18 01:08:57;;;;;;;2.70;1.40;;;;;;;19.97;47.57;99521.44;5093878;28;20078;-60
2021/05/18 01:11:29;;;;;;;3.23;1.30;;;;;;;19.97;47.45;99518.78;5095009;28;20024;-60
2021/05/18 01:13:58;;;;;;;2.70;1.30;;;;;;;19.98;47.60;99528.50;5094164;28;20110;-60
2021/05/18 01:16:25;;;;;;;2.20;1.40;;;;;;;19.97;47.43;99520.56;5094966;28;20031;-60
2021/05/18 01:18:52;;;;;;;2.63;1.50;;;;;;;19.97;47.67;99537.41;5093631;28;20443;-60
2021/05/18 01:21:18;;;;;;;1.73;1.30;;;;;;;19.97;47.58;99529.44;5094835;28;20085;-60
2021/05/18 01:23:44;;;;;;;2.17;1.40;;;;;;;19.98;47.53;99533.84;5095044;28;20028;-60
2021/05/18 01:26:11;;;;;;;1.85;1.10;;;;;;;19.99;47.46;99537.38;5076397;28;20550;-60
2021/05/18 01:28:37;;;;;;;2.00;1.30;;;;;;;19.97;47.60;99534.75;5095052;28;20077;-60
2021/05/18 01:31:04;;;;;;;3.00;1.60;;;;;;;19.97;47.31;99532.09;5094636;28;20075;-60
2021/05/18 01:33:31;;;;;;;3.20;1.60;;;;;;;19.97;47.61;99532.09;5093361;28;20111;-60
2021/05/18 01:35:58;;;;;;;2.22;1.50;;;;;;;19.97;47.52;99537.41;5093515;28;20555;-60
2021/05/18 01:38:33;;;;;;;2.45;1.40;;;;;;;19.97;47.45;99534.75;5093351;28;20034;-60
2021/05/18 01:43:54;;;;;;;1.85;1.23;;;;;;;19.97;47.56;99542.75;5094521;28;20101;-60
2021/05/18 01:46:23;;;;;;;2.55;1.40;;;;;;;19.98;47.40;99543.63;5093474;28;20158;-60
2021/05/18 01:49:00;;;;;;;2.60;1.50;;;;;;;19.97;47.54;99545.41;5093039;28;20492;-60
2021/05/18 01:51:38;;;;;;;1.77;1.20;;;;;;;19.98;47.49;99548.94;5077566;28;20066;-60
2021/05/18 01:54:16;;;;;;;2.67;1.60;;;;;;;19.98;47.41;99552.47;5093283;28;20522;-60
2021/05/18 01:59:18;;;;;;;2.47;1.50;;;;;;;19.98;47.27;99556.94;5093189;28;20038;-60
2021/05/18 02:01:46;;;;;;;3.25;1.40;;;;;;;19.98;47.29;99555.16;5092885;28;20032;-60
2021/05/18 02:04:31;;;;;;;3.30;1.50;;;;;;;19.98;47.45;99557.81;5092836;28;20040;-60
2021/05/18 02:06:59;;;;;;;1.83;1.40;;;;;;;19.98;47.25;99552.47;5094041;28;20108;-60
2021/05/18 02:09:25;;;;;;;2.80;1.42;;;;;;;19.98;47.33;99560.47;5092702;28;20122;-60
2021/05/18 02:11:54;;;;;;;3.38;1.60;;;;;;;19.98;47.32;99557.81;5093170;28;20032;-60
2021/05/18 02:14:32;;;;;;;2.38;1.20;;;;;;;19.99;47.29;99561.34;5093877;28;20056;-60
2021/05/18 02:25:41;;;;;;;2.47;1.38;;;;;;;19.99;47.21;99577.34;5092463;28;20028;-60
2021/05/18 02:28:15;;;;;;;2.00;1.30;;;;;;;19.98;47.22;99579.13;5092294;28;20067;-60
2021/05/18 02:30:48;;;;;;;2.65;1.42;;;;;;;19.99;47.26;99580.88;5092401;28;20035;-60
2021/05/18 02:33:22;;;;;;;3.50;1.60;;;;;;;19.98;47.24;99584.47;5092506;28;20024;-60
2021/05/18 02:35:49;;;;;;;2.40;1.40;;;;;;;19.98;47.16;99584.47;5093832;28;20043;-60
2021/05/18 02:38:15;;;;;;;1.98;1.30;;;;;;;19.98;47.29;99589.78;5092301;28;20028;-60
2021/05/18 02:40:48;;;;;;;2.42;1.40;;;;;;;19.98;47.23;99579.13;5060744;28;20028;-60
2021/05/18 02:43:20;;;;;;;2.05;1.38;;;;;;;19.99;47.08;99590.66;5092198;28;20094;-60
2021/05/18 02:46:17;;;;;;;2.33;1.30;;;;;;;19.99;47.24;99590.66;5092256;28;20115;-60
2021/05/18 02:51:30;;;;;;;2.70;1.40;;;;;;;19.98;46.97;99587.13;5092456;28;20118;-60
2021/05/18 02:53:56;;;;;;;2.28;1.40;;;;;;;19.99;47.19;99588.84;5092357;28;20039;-60
2021/05/18 02:56:30;;;;;;;2.67;1.40;;;;;;;19.99;46.98;99588.00;5091973;28;20503;-60
2021/05/18 03:01:32;;;;;;;2.25;1.40;;;;;;;19.98;47.09;99581.78;5094806;28;20032;-60
2021/05/18 03:03:58;;;;;;;3.15;1.60;;;;;;;19.99;47.02;99585.31;5096215;28;20040;-60
2021/05/18 03:06:25;;;;;;;1.70;1.40;;;;;;;19.99;46.87;99586.19;5096128;28;20028;-60
2021/05/18 03:08:51;;;;;;;2.67;1.40;;;;;;;19.99;47.08;99586.19;5097635;28;20062;-60
2021/05/18 03:11:17;;;;;;;2.75;1.23;;;;;;;19.99;46.87;99585.31;5097386;28;20112;-60
2021/05/18 03:13:43;;;;;;;4.43;1.50;;;;;;;19.99;47.03;99583.53;5096047;28;20028;-60
2021/05/18 03:16:09;;;;;;;2.13;1.30;;;;;;;19.99;46.82;99588.84;5097200;28;20046;-60
2021/05/18 03:18:36;;;;;;;2.05;1.40;;;;;;;19.99;47.11;99594.19;5096123;28;20151;-60
2021/05/18 03:21:02;;;;;;;2.85;1.40;;;;;;;20.00;46.94;99593.22;5096312;28;20111;-60
2021/05/18 03:23:29;;;;;;;1.95;1.30;;;;;;;20.00;46.99;99589.69;5097133;28;20107;-60
2021/05/18 03:25:55;;;;;;;2.38;1.38;;;;;;;20.00;47.03;99595.03;5097493;28;20040;-60
2021/05/18 03:28:22;;;;;;;2.28;1.30;;;;;;;19.99;46.93;99599.50;5096940;28;20093;-60
2021/05/18 03:30:56;;;;;;;2.58;1.30;;;;;;;19.99;46.94;99602.19;5097260;28;20441;-60
2021/05/18 03:36:07;;;;;;;2.15;1.40;;;;;;;20.00;46.97;99608.34;5097162;28;20071;-59
2021/05/18 03:41:12;;;;;;;3.25;1.40;;;;;;;19.99;46.95;99607.50;5096808;28;20024;-60
2021/05/18 03:43:52;;;;;;;2.25;1.40;;;;;;;19.99;46.89;99607.50;5096840;28;20504;-60
2021/05/18 03:54:22;;;;;;;2.20;1.40;;;;;;;19.99;46.97;99610.19;5096547;28;20058;-60
2021/05/18 04:10:12;;;;;;;1.90;1.25;;;;;;;19.99;46.73;99618.16;5096668;28;20393;-60
2021/05/18 04:11:16;;;;;;;5.43;2.40;;;;;;;19.95;46.64;99627.22;5096424;28;20036;-60
2021/05/18 04:19:05;;;;;;;4.88;1.80;;;;;;;20.00;46.67;99619.88;5095400;28;20036;-60
2021/05/18 04:49:16;;;;;;;7.63;2.22;;;;;;;20.09;46.16;99647.91;5095464;28;20469;-60
2021/05/18 05:07:14;;;;;;;17.17;8.65;;;;;;;17.92;47.20;99649.50;5095353;28;20028;-59
2021/05/18 05:09:44;;;;;;;22.63;9.55;;;;;;;17.69;46.79;99660.06;5095231;28;20094;-60
2021/05/18 05:14:52;;;;;;;15.82;8.68;;;;;;;17.66;46.82;99674.31;5095250;28;20039;-60
2021/05/18 05:17:18;;;;;;;25.45;10.65;;;;;;;17.51;46.86;99673.94;5094768;28;20039;-60
2021/05/18 05:19:44;;;;;;;21.95;9.98;;;;;;;17.69;46.44;99673.34;5094378;28;20032;-59
2021/05/18 05:22:13;;;;;;;20.55;10.30;;;;;;;17.24;47.02;99679.22;5095059;28;20063;-60
2021/05/18 05:24:39;;;;;;;20.45;8.75;;;;;;;17.84;46.28;99677.28;5094541;28;20036;-59
2021/05/18 05:27:06;;;;;;;18.55;8.02;;;;;;;18.54;44.87;99673.78;5093394;28;20138;-60
2021/05/18 05:29:32;;;;;;;16.38;6.85;;;;;;;18.93;44.11;99678.53;5094140;28;20042;-60
2021/05/18 05:31:58;;;;;;;19.73;6.95;;;;;;;19.13;43.52;99680.41;5094626;28;20544;-60
2021/05/18 05:34:24;;;;;;;14.82;6.10;;;;;;;19.24;43.52;99681.72;5094846;28;20085;-60
2021/05/18 05:36:50;;;;;;;12.98;6.13;;;;;;;19.30;43.36;99684.13;5094512;28;20035;-60
2021/05/18 05:39:23;;;;;;;14.93;5.82;;;;;;;19.34;43.11;99688.38;5094583;28;20077;-60
2021/05/18 05:41:50;;;;;;;11.98;5.15;;;;;;;19.39;43.36;99688.19;5094764;28;20080;-60
2021/05/18 05:44:17;;;;;;;11.32;5.15;;;;;;;19.42;43.37;99690.72;5093223;28;20035;-60
2021/05/18 05:46:43;;;;;;;12.93;4.85;;;;;;;19.47;43.46;99682.59;5094607;28;20373;-60
2021/05/18 05:49:09;;;;;;;14.27;4.45;;;;;;;19.49;43.55;99689.59;5093036;28;20035;-60
2021/05/18 05:51:35;;;;;;;11.20;4.40;;;;;;;19.50;43.68;99686.00;5093055;28;20024;-60
2021/05/18 05:54:02;;;;;;;10.85;4.10;;;;;;;19.52;43.53;99693.91;5094540;28;20119;-60
2021/05/18 05:56:28;;;;;;;12.57;4.25;;;;;;;19.53;43.62;99688.53;5094197;28;20032;-60
2021/05/18 05:58:55;;;;;;;8.38;3.50;;;;;;;19.56;43.60;99693.72;5093005;28;20118;-60
2021/05/18 06:01:21;;;;;;;11.63;3.90;;;;;;;19.56;43.79;99691.06;5094069;28;20084;-60
2021/05/18 06:03:47;;;;;;;10.55;3.47;;;;;;;19.57;43.64;99692.78;5094091;28;20046;-60
2021/05/18 06:06:14;;;;;;;10.65;3.47;;;;;;;19.59;43.90;99698.03;5094203;28;20430;-59
2021/05/18 06:08:45;;;;;;;11.52;3.28;;;;;;;19.60;43.91;99698.00;5093951;28;20093;-59
2021/05/18 06:14:01;;;;;;;10.75;3.22;;;;;;;19.63;43.87;99703.16;5094071;28;20046;-59
2021/05/18 06:41:40;;;;;;;7.32;2.60;;;;;;;19.68;44.25;99714.53;5031275;28;20103;-60
2021/05/18 06:49:18;;;;;;;9.00;2.40;;;;;;;19.70;44.43;99719.75;5031202;28;20030;-61
2021/05/18 06:51:44;;;;;;;8.50;2.47;;;;;;;19.70;44.58;99720.63;5031258;28;20033;-61
2021/05/18 06:54:10;;;;;;;6.65;2.30;;;;;;;19.71;44.64;99725.03;5031186;28;20041;-60
2021/05/18 06:56:38;;;;;;;6.93;2.30;;;;;;;19.71;44.56;99716.19;5031137;28;20037;-60
2021/05/18 07:01:30;;;;;;;6.57;2.33;;;;;;;19.72;44.65;99732.09;5031401;28;20048;-60
2021/05/18 07:04:00;;;;;;;7.65;2.58;;;;;;;19.72;44.55;99732.09;5031111;28;20030;-60
2021/05/18 07:06:47;;;;;;;6.80;2.50;;;;;;;19.72;44.68;99726.78;5031176;28;20099;-60
2021/05/18 07:09:13;;;;;;;7.20;2.00;;;;;;;19.71;44.71;99722.38;5031333;28;20108;-60
2021/05/18 07:11:40;;;;;;;7.97;2.50;;;;;;;19.72;44.65;99729.44;5053684;28;20055;-60
2021/05/18 07:14:06;;;;;;;7.63;2.30;;;;;;;19.75;44.79;99733.75;5093459;28;20047;-60
2021/05/18 07:16:32;;;;;;;7.57;2.30;;;;;;;19.74;44.76;99732.03;5093097;28;20094;-60
2021/05/18 07:18:59;;;;;;;6.32;2.38;;;;;;;19.75;44.70;99739.09;5093115;28;20039;-60
2021/05/18 07:21:25;;;;;;;8.10;2.38;;;;;;;19.75;44.78;99731.97;5093143;28;20522;-61
2021/05/18 07:23:52;;;;;;;7.22;2.30;;;;;;;19.75;44.67;99728.44;5093345;28;20028;-61
2021/05/18 07:26:19;;;;;;;7.13;2.42;;;;;;;19.76;44.70;99727.50;5093050;28;20054;-61
2021/05/18 07:28:45;;;;;;;7.72;2.40;;;;;;;19.75;44.84;99726.63;5093340;28;20430;-61
2021/05/18 07:31:11;;;;;;;7.95;2.70;;;;;;;19.75;44.67;99731.97;5093014;28;20042;-61
2021/05/18 07:33:37;;;;;;;7.45;2.40;;;;;;;19.76;44.74;99725.69;5091794;28;20035;-60
2021/05/18 07:36:08;;;;;;;6.60;2.10;;;;;;;19.77;44.84;99726.56;5092901;28;20039;-60
2021/05/18 07:38:40;;;;;;;8.90;2.38;;;;;;;19.77;44.66;99734.56;5093238;28;20031;-60
2021/05/18 07:41:06;;;;;;;8.55;2.20;;;;;;;19.77;44.76;99738.09;5093315;28;20468;-60
2021/05/18 07:43:32;;;;;;;5.65;2.15;;;;;;;19.77;44.96;99740.75;5092949;28;20031;-60
2021/05/18 07:46:00;;;;;;;5.88;2.03;;;;;;;19.77;44.88;99734.56;5092835;28;20110;-60
2021/05/18 07:48:33;;;;;;;5.78;1.88;;;;;;;19.77;44.98;99738.09;5096024;28;20077;-60
2021/05/18 08:02:19;;;;;;;5.25;1.83;;;;;;;19.78;45.11;99738.97;5096526;28;20028;-60
2021/05/18 08:07:17;;;;;;;7.15;2.13;;;;;;;19.77;44.88;99734.56;5096452;28;20058;-60
2021/05/18 08:12:18;;;;;;;7.63;2.00;;;;;;;19.79;45.05;99730.91;5096222;28;20129;-59
2021/05/18 08:15:13;;;;;;;6.85;2.28;;;;;;;19.79;45.00;99735.38;5096185;28;20081;-59
2021/05/18 08:17:55;;;;;;;5.80;2.00;;;;;;;19.79;44.85;99728.25;5096023;28;20319;-60
2021/05/18 08:46:50;;;;;;;3.53;1.63;;;;;;;19.80;45.05;99734.44;5096332;28;20115;-60
2021/05/18 09:33:30;;;;;;;4.25;1.75;;;;;;;19.83;45.17;99739.63;5094839;28;20032;-60
2021/05/18 09:37:14;;;;;;;3.72;1.67;;;;;;;19.84;45.27;99737.84;5094685;28;20047;-59
2021/05/18 09:50:32;;;;;;;4.68;2.00;;;;;;;19.84;45.31;99722.72;5094495;28;20020;-60
2021/05/18 10:38:36;;;;;;;4.13;1.80;;;;;;;19.87;45.14;99725.28;5092431;28;20024;-60
2021/05/18 10:41:12;;;;;;;2.55;1.52;;;;;;;19.86;45.19;99723.53;5093861;28;20044;-60
2021/05/18 10:43:39;;;;;;;4.63;1.80;;;;;;;19.86;45.43;99723.53;5093848;28;20103;-60
2021/05/18 10:46:18;;;;;;;4.18;1.60;;;;;;;19.87;45.27;99725.28;5093436;28;20032;-60
2021/05/18 10:48:52;;;;;;;4.40;1.85;;;;;;;19.88;45.36;99732.31;5093478;28;20032;-60
2021/05/18 10:51:25;;;;;;;3.80;1.63;;;;;;;19.87;45.35;99733.28;5093738;28;20374;-60
2021/05/18 10:54:28;;;;;;;5.07;1.60;;;;;;;19.87;45.34;99727.06;5093338;28;20028;-60
2021/05/18 10:56:54;;;;;;;3.13;1.60;;;;;;;19.87;45.22;99724.41;5051132;28;20049;-61
2021/05/18 10:59:26;;;;;;;4.30;1.55;;;;;;;19.89;45.30;99738.50;5051335;28;20040;-60
2021/05/18 11:02:04;;;;;;;4.18;1.80;;;;;;;19.88;45.29;99734.97;5051235;28;20076;-60
2021/05/18 11:04:35;;;;;;;3.95;1.77;;;;;;;19.89;45.19;99731.38;5050979;28;20106;-61
2021/05/18 11:07:03;;;;;;;3.47;1.60;;;;;;;19.89;45.25;99736.72;5050878;28;20041;-60
2021/05/18 11:09:29;;;;;;;3.05;1.42;;;;;;;19.89;45.19;99733.19;5051502;28;20067;-60
2021/05/18 11:11:58;;;;;;;4.72;2.00;;;;;;;19.89;45.36;99735.84;5050898;28;20044;-60
2021/05/18 11:14:34;;;;;;;;;;;;;;;19.85;45.33;99736.91;5052138;28;20037;-60
2021/05/18 11:17:13;;;;;;;4.43;1.80;;;;;;;19.86;45.32;99731.53;5051274;28;19950;-60
2021/05/18 11:20:01;;;;;;;4.70;1.55;;;;;;;19.88;45.18;99734.09;5051160;28;20061;-60
2021/05/18 11:25:13;;;;;;;3.33;1.63;;;;;;;19.88;45.17;99736.78;5055110;28;20075;-60
2021/05/18 11:27:39;;;;;;;3.45;1.70;;;;;;;19.89;45.34;99730.50;5054648;28;20049;-61
2021/05/18 11:30:07;;;;;;;3.90;1.70;;;;;;;19.89;45.23;99736.72;5054985;28;20037;-60
2021/05/18 11:32:34;;;;;;;3.53;1.53;;;;;;;19.89;45.20;99731.38;5065415;28;20115;-60
2021/05/18 11:35:03;;;;;;;2.70;1.60;;;;;;;19.90;45.25;99734.91;5095846;28;20032;-60
2021/05/18 11:37:29;;;;;;;3.95;1.63;;;;;;;19.89;45.15;99726.06;5097014;28;20024;-61
2021/05/18 11:40:11;;;;;;;4.43;1.75;;;;;;;19.90;45.31;99734.91;5096962;28;20103;-60
2021/05/18 11:42:37;;;;;;;2.70;1.48;;;;;;;19.90;45.26;99734.91;5095626;28;20086;-60
2021/05/18 11:45:15;;;;;;;3.85;1.60;;;;;;;19.90;45.41;99729.59;5096837;28;20115;-60
2021/05/18 11:47:42;;;;;;;2.70;1.50;;;;;;;19.89;45.34;99736.72;5096903;28;20153;-60
2021/05/18 11:50:29;;;;;;;3.60;1.50;;;;;;;19.90;45.29;99745.56;5097010;28;20443;-60
2021/05/18 11:52:55;;;;;;;3.95;1.80;;;;;;;19.91;45.38;99742.00;5096744;28;20039;-60
2021/05/18 11:55:26;;;;;;;5.07;1.92;;;;;;;19.91;45.33;99742.00;5096629;28;20397;-60
2021/05/18 11:57:54;;;;;;;3.42;1.73;;;;;;;19.90;45.34;99738.44;5097073;28;20170;-60
2021/05/18 12:00:33;;;;;;;3.65;1.70;;;;;;;19.91;45.24;99748.19;5096326;28;20092;-60
2021/05/18 12:03:10;;;;;;;3.88;1.60;;;;;;;19.91;45.31;99747.31;5097303;28;20089;-60
2021/05/18 12:05:51;;;;;;;4.22;1.75;;;;;;;19.90;45.18;99743.78;5095599;28;20160;-60
2021/05/18 12:08:28;;;;;;;4.00;1.60;;;;;;;19.91;45.40;99747.31;5096565;28;20064;-60
2021/05/18 12:10:54;;;;;;;4.07;1.75;;;;;;;19.91;45.20;99736.66;5096328;28;20032;-60
2021/05/18 12:13:30;;;;;;;2.72;1.55;;;;;;;19.91;45.39;99742.84;5096346;28;20028;-60
2021/05/18 12:16:07;;;;;;;3.80;1.70;;;;;;;19.92;45.28;99738.41;5094881;28;20040;-61
2021/05/18 12:18:34;;;;;;;4.15;1.70;;;;;;;19.91;45.12;99734.88;5096448;28;20077;-60
2021/05/18 12:21:21;;;;;;;4.25;1.70;;;;;;;19.90;45.14;99735.78;5096362;28;20031;-60
2021/05/18 12:24:03;;;;;;;3.22;1.60;;;;;;;19.91;45.31;99744.66;5096980;28;20070;-60
2021/05/18 12:26:29;;;;;;;3.50;1.60;;;;;;;19.92;45.28;99735.72;5119287;22;20047;-66
2021/05/18 12:29:03;;;;;;;3.85;1.60;;;;;;;19.92;45.24;99743.72;5094541;28;20044;-66
2021/05/18 12:31:34;;;;;;;5.82;1.85;;;;;;;19.92;45.34;99749.06;5096298;28;20051;-69
2021/05/18 12:34:01;;;;;;;2.63;1.60;;;;;;;19.93;45.19;99745.47;5093323;28;20059;-69
2021/05/18 12:36:28;;;;;;;2.83;1.50;;;;;;;19.93;45.33;99748.13;5095814;28;20028;-68
2021/05/18 12:39:17;;;;;;;3.17;1.50;;;;;;;19.91;45.28;99748.19;5094946;28;20366;-68
2021/05/18 12:41:51;;;;;;;3.63;1.70;;;;;;;19.93;45.14;99742.78;5087313;28;20177;-69
2021/05/18 12:44:19;;;;;;;3.83;1.80;;;;;;;19.93;45.19;99742.78;5094951;28;20055;-60
2021/05/18 12:47:00;;;;;;;2.53;1.35;;;;;;;19.93;45.26;99745.47;5094329;28;20093;-61
2021/05/18 12:49:36;;;;;;;4.13;1.70;;;;;;;19.92;45.33;99747.25;5095559;28;20434;-61
2021/05/18 12:52:11;;;;;;;2.65;1.40;;;;;;;19.92;45.09;99749.91;5095911;28;20131;-64
2021/05/18 12:54:41;;;;;;;3.55;1.60;;;;;;;19.92;45.21;99749.91;5077502;28;20096;-65
2021/05/18 12:57:11;;;;;;;3.50;1.58;;;;;;;19.92;45.33;99749.91;5096136;28;20107;-65
2021/05/18 12:59:59;;;;;;;2.95;1.50;;;;;;;19.92;45.15;99762.38;5077384;28;20032;-69
2021/05/18 13:02:41;;;;;;;3.78;1.60;;;;;;;19.93;45.26;99764.13;5077834;28;20031;-65
2021/05/18 13:05:21;;;;;;;3.30;1.63;;;;;;;19.93;45.15;99767.66;5094326;28;20054;-61
2021/05/18 13:08:05;;;;;;;4.05;1.60;;;;;;;19.92;45.20;99776.56;5094222;28;20093;-61
2021/05/18 13:10:49;;;;;;;3.53;1.50;;;;;;;19.94;45.18;99779.16;5078160;28;20495;-61
2021/05/18 13:13:17;;;;;;;3.60;1.70;;;;;;;19.93;45.21;99782.75;5094366;28;20028;-61
2021/05/18 13:15:44;;;;;;;2.45;1.60;;;;;;;19.92;45.30;99787.22;5095102;28;20568;-60
2021/05/18 13:18:12;;;;;;;3.13;1.60;;;;;;;19.93;45.31;99783.63;5095137;28;20546;-61
2021/05/18 13:20:50;;;;;;;3.40;1.60;;;;;;;19.94;45.15;99787.13;5093934;28;20032;-65
2021/05/18 13:29:09;;;;;;;3.22;1.67;;;;;;;19.92;45.31;99789.03;5094784;28;20040;-69
2021/05/18 13:31:37;;;;;;;3.58;1.58;;;;;;;19.93;45.33;99788.97;5094444;28;20047;-68
2021/05/18 13:34:03;;;;;;;3.45;1.50;;;;;;;19.94;45.10;99785.34;5094939;28;20117;-69
2021/05/18 13:36:33;;;;;;;2.58;1.45;;;;;;;19.93;45.26;99782.75;5094824;28;20028;-69
2021/05/18 13:39:07;;;;;;;2.58;1.58;;;;;;;19.93;45.31;99783.63;5093866;28;20024;-69
2021/05/18 13:41:34;;;;;;;4.45;1.80;;;;;;;19.93;45.29;99780.97;5094823;28;20040;-68
2021/05/18 13:44:01;;;;;;;4.07;1.80;;;;;;;19.92;45.28;99784.56;5093356;28;20481;-69
2021/05/18 13:46:27;;;;;;;3.40;1.55;;;;;;;19.93;45.19;99780.09;5094062;28;20111;-65
2021/05/18 13:48:53;;;;;;;3.17;1.60;;;;;;;19.94;45.22;99769.34;5094759;28;20540;-65
2021/05/18 13:51:20;;;;;;;3.55;1.50;;;;;;;19.94;45.10;99777.34;5094465;28;20032;-65
2021/05/18 13:53:46;;;;;;;2.33;1.50;;;;;;;19.93;45.27;99767.66;5076258;28;20032;-65
2021/05/18 13:56:12;;;;;;;2.70;1.60;;;;;;;19.94;45.20;99776.47;5094354;28;20076;-65
2021/05/18 13:58:38;;;;;;;2.33;1.50;;;;;;;19.94;45.16;99771.16;5094217;28;20032;-65
2021/05/18 14:01:08;;;;;;;2.30;1.40;;;;;;;19.93;45.19;99762.31;5094333;28;20024;-65
2021/05/18 14:03:35;;;;;;;3.20;1.52;;;;;;;19.93;45.33;99764.97;5094495;28;20464;-65
2021/05/18 14:06:02;;;;;;;3.75;1.50;;;;;;;19.94;45.16;99768.47;5094126;28;20032;-65
2021/05/18 14:08:33;;;;;;;2.35;1.40;;;;;;;19.93;45.23;99770.31;5093157;28;20028;-65
2021/05/18 14:11:08;;;;;;;3.05;1.40;;;;;;;19.94;45.13;99765.81;5093023;28;20051;-65
2021/05/18 14:13:36;;;;;;;2.92;1.50;;;;;;;19.94;45.35;99776.47;5094006;28;20483;-65
2021/05/18 14:16:03;;;;;;;3.42;1.63;;;;;;;19.93;45.27;99775.66;5094253;28;20514;-65
2021/05/18 14:18:30;;;;;;;2.88;1.58;;;;;;;19.94;45.29;99776.47;5093947;28;20487;-65
2021/05/18 14:20:57;;;;;;;2.20;1.40;;;;;;;19.93;45.27;99764.97;5093945;28;20043;-65
2021/05/18 14:23:25;;;;;;;2.78;1.60;;;;;;;19.94;45.17;99765.81;5092980;28;20130;-65
2021/05/18 14:25:53;;;;;;;3.75;1.58;;;;;;;19.93;45.20;99775.66;5094128;28;20442;-65
2021/05/18 14:28:20;;;;;;;3.03;1.55;;;;;;;19.94;45.16;99769.34;5092313;28;20488;-65
2021/05/18 14:30:46;;;;;;;2.15;1.40;;;;;;;19.95;45.18;99772.88;5093843;28;20031;-68
2021/05/18 14:33:12;;;;;;;3.75;1.58;;;;;;;19.94;45.24;99772.03;5092554;28;20103;-69
2021/05/18 14:35:38;;;;;;;2.67;1.50;;;;;;;19.94;45.27;99772.03;5092573;28;20028;-69
2021/05/18 14:38:18;;;;;;;3.20;1.52;;;;;;;19.93;45.38;99770.31;5093892;28;20426;-69
2021/05/18 14:41:06;;;;;;;2.58;1.40;;;;;;;19.95;45.20;99770.22;5093625;28;20034;-69
2021/05/18 14:46:29;;;;;;;3.50;1.60;;;;;;;19.94;45.10;99780.00;5093562;28;20040;-69
2021/05/18 14:56:55;;;;;;;2.63;1.45;;;;;;;19.94;45.30;99784.47;5092644;28;20036;-61
2021/05/18 14:59:21;;;;;;;2.78;1.60;;;;;;;19.94;45.31;99781.81;5093865;28;20053;-61
2021/05/18 15:01:47;;;;;;;3.53;1.50;;;;;;;19.94;45.25;99780.00;5093313;28;20111;-61
2021/05/18 15:04:14;;;;;;;2.75;1.50;;;;;;;19.95;45.26;99783.53;5093317;28;20480;-68
2021/05/18 15:06:41;;;;;;;2.17;1.45;;;;;;;19.95;45.23;99780.88;5093504;28;20066;-69
2021/05/18 15:09:07;;;;;;;1.88;1.27;;;;;;;19.95;45.16;99780.88;5092101;28;20055;-68
2021/05/18 15:11:34;;;;;;;2.63;1.60;;;;;;;19.95;45.33;99772.88;5075335;28;20438;-69
2021/05/18 15:14:00;;;;;;;3.13;1.52;;;;;;;19.94;45.20;99780.00;5093480;28;20032;-69
2021/05/18 15:16:26;;;;;;;2.40;1.40;;;;;;;19.95;45.14;99773.75;5092249;28;20036;-69
2021/05/18 15:18:54;;;;;;;2.47;1.42;;;;;;;19.95;45.18;99772.88;5093170;28;20035;-69
2021/05/18 15:21:20;;;;;;;2.50;1.50;;;;;;;19.95;45.30;99767.56;5093294;28;20044;-69
2021/05/18 15:23:46;;;;;;;2.95;1.50;;;;;;;19.95;45.19;99771.09;5093447;28;20028;-69
2021/05/18 15:26:13;;;;;;;2.53;1.40;;;;;;;19.95;45.09;99772.88;5075476;28;20181;-68
2021/05/18 15:28:42;;;;;;;1.80;1.35;;;;;;;19.95;45.08;99771.09;5091787;28;20040;-68
2021/05/18 15:31:09;;;;;;;2.63;1.60;;;;;;;19.95;45.19;99780.88;5093391;28;20396;-66
2021/05/18 15:33:35;;;;;;;2.63;1.40;;;;;;;19.95;45.36;99773.75;5093566;28;20461;-67
2021/05/18 15:36:06;;;;;;;4.60;1.60;;;;;;;20.04;45.21;99783.19;5093206;28;20062;-66
2021/05/18 15:38:38;;;;;;;3.80;1.58;;;;;;;20.07;45.07;99783.03;5093320;28;20071;-67
2021/05/18 15:41:07;;;;;;;2.97;1.30;;;;;;;20.10;45.05;99780.25;5093403;28;20027;-66
2021/05/18 15:43:36;;;;;;;4.70;1.60;;;;;;;20.11;45.22;99772.19;5093280;28;20101;-67
2021/05/18 15:46:03;;;;;;;4.85;1.42;;;;;;;20.10;45.25;99778.47;5093206;28;20036;-65
2021/05/18 15:48:29;;;;;;;4.18;1.60;;;;;;;20.11;45.73;99780.19;5092866;28;20096;-67
2021/05/18 15:50:55;;;;;;;4.85;1.80;;;;;;;20.15;45.64;99762.25;5074744;28;20149;-68
2021/05/18 15:53:21;;;;;;;4.35;1.83;;;;;;;20.22;45.78;99768.19;5091598;28;20028;-66
2021/05/18 15:55:48;;;;;;;4.72;1.70;;;;;;;20.23;45.53;99776.13;5093411;28;20598;-67
2021/05/18 15:58:14;;;;;;;3.95;1.77;;;;;;;20.24;45.80;99777.88;5091510;28;20058;-68
2021/05/18 16:00:40;;;;;;;3.38;1.52;;;;;;;20.26;45.67;99775.13;5092759;28;20366;-69
2021/05/18 16:03:06;;;;;;;6.38;1.55;;;;;;;20.25;45.50;99766.25;5091859;28;20419;-66
2021/05/18 16:05:33;;;;;;;7.85;1.70;;;;;;;20.25;45.50;99770.72;5092597;28;20067;-66
2021/05/18 16:08:09;;;;;;;4.28;1.60;;;;;;;20.25;46.22;99776.91;5091117;28;20048;-64
2021/05/18 16:10:35;;;;;;;5.47;1.55;;;;;;;20.28;46.22;99775.94;5095314;28;20036;-65
2021/05/18 16:13:01;;;;;;;3.33;1.45;;;;;;;20.30;45.92;99776.75;5096258;28;20077;-65
2021/05/18 16:15:28;;;;;;;4.10;1.65;;;;;;;20.30;45.79;99774.06;5096275;28;20035;-65
2021/05/18 16:17:54;;;;;;;4.03;1.70;;;;;;;20.31;45.92;99765.97;5096172;28;20044;-66
2021/05/18 16:20:20;;;;;;;3.92;1.60;;;;;;;20.32;45.73;99769.53;5094859;28;20043;-65
2021/05/18 16:22:46;;;;;;;4.07;1.70;;;;;;;20.33;45.97;99765.97;5094877;28;20030;-65
2021/05/18 16:25:13;;;;;;;4.45;1.60;;;;;;;20.34;45.79;99767.69;5094843;28;20047;-65
2021/05/18 16:27:39;;;;;;;5.55;1.70;;;;;;;20.35;46.21;99767.63;5095930;28;20028;-65
2021/05/18 16:30:06;;;;;;;5.00;1.98;;;;;;;20.33;46.32;99764.16;5096133;28;20081;-64
2021/05/18 16:32:33;;;;;;;5.10;1.90;;;;;;;20.34;46.29;99765.91;5095681;28;20473;-65
2021/05/18 16:34:59;;;;;;;4.68;1.75;;;;;;;20.34;46.62;99759.69;5095825;28;20027;-66
2021/05/18 16:37:25;;;;;;;3.33;1.50;;;;;;;20.31;46.36;99771.31;5095982;28;20111;-65
2021/05/18 16:39:51;;;;;;;4.63;1.65;;;;;;;20.29;46.48;99770.53;5095743;28;20122;-65
2021/05/18 16:42:17;;;;;;;4.47;1.63;;;;;;;20.29;46.50;99765.22;5095760;28;20020;-65